Pacheco, California
Current Conditions -  °F | °C
As of 2:53 AM on Monday 22 Dec 2014 (Local Time) from KCCR Reporting Station
Overcast Overcast  
Wind Chill: 59°   Ceiling: 1200
Heat Index: 59°   Visibility: 10mi
Dew Point: 55°   Wind: 3mph
Humidity: 87%   Direction: NA
Pressure: 30.27"   Gusts: NA
Location:  37.9788°N, 122.164°W
Report Text: KCCR 221053Z VRB03KT 10SM OVC012 15/13 A3027 RMK AO2 SLP238 T01500128
Loading
Personal Weather Stations






























Interactive Weather Map New forecast layout! Learn more

10-Day Weather Forecast

Advertisements
Track Severe Weather on mobile